sensor_id;sensor_type;location;lat;lon;timestamp;P1;durP1;ratioP1;P2;durP2;ratioP2
21848;SDS011;11089;49.852;19.700;2022-09-09T00:02:23;4.95;;;3.75;;
21848;SDS011;11089;49.852;19.700;2022-09-09T00:05:39;4.65;;;3.10;;
21848;SDS011;11089;49.852;19.700;2022-09-09T00:09:02;5.18;;;3.33;;
21848;SDS011;11089;49.852;19.700;2022-09-09T00:12:32;4.32;;;3.60;;
21848;SDS011;11089;49.852;19.700;2022-09-09T00:22:31;3.92;;;3.40;;
21848;SDS011;11089;49.852;19.700;2022-09-09T00:25:34;4.43;;;3.50;;
21848;SDS011;11089;49.852;19.700;2022-09-09T00:28:55;11.00;;;4.00;;
21848;SDS011;11089;49.852;19.700;2022-09-09T00:32:16;6.60;;;3.50;;
21848;SDS011;11089;49.852;19.700;2022-09-09T00:38:37;4.65;;;3.13;;
21848;SDS011;11089;49.852;19.700;2022-09-09T00:44:53;4.20;;;3.28;;
21848;SDS011;11089;49.852;19.700;2022-09-09T00:48:11;4.72;;;3.40;;
21848;SDS011;11089;49.852;19.700;2022-09-09T00:58:09;4.35;;;2.72;;
21848;SDS011;11089;49.852;19.700;2022-09-09T01:01:11;7.15;;;3.08;;
21848;SDS011;11089;49.852;19.700;2022-09-09T01:04:14;3.67;;;3.00;;
21848;SDS011;11089;49.852;19.700;2022-09-09T01:07:22;4.32;;;2.90;;
21848;SDS011;11089;49.852;19.700;2022-09-09T01:13:46;4.20;;;2.90;;
21848;SDS011;11089;49.852;19.700;2022-09-09T01:16:54;3.65;;;2.50;;
21848;SDS011;11089;49.852;19.700;2022-09-09T01:26:58;8.13;;;2.35;;
21848;SDS011;11089;49.852;19.700;2022-09-09T01:30:02;4.88;;;2.30;;
21848;SDS011;11089;49.852;19.700;2022-09-09T01:33:13;3.05;;;2.75;;
21848;SDS011;11089;49.852;19.700;2022-09-09T01:36:26;2.92;;;2.45;;
21848;SDS011;11089;49.852;19.700;2022-09-09T01:39:34;4.20;;;2.30;;
21848;SDS011;11089;49.852;19.700;2022-09-09T01:42:37;3.72;;;2.25;;
21848;SDS011;11089;49.852;19.700;2022-09-09T01:45:39;2.45;;;2.25;;
21848;SDS011;11089;49.852;19.700;2022-09-09T01:48:42;3.40;;;2.35;;
21848;SDS011;11089;49.852;19.700;2022-09-09T01:51:44;2.72;;;2.53;;
21848;SDS011;11089;49.852;19.700;2022-09-09T01:54:50;4.80;;;2.60;;
21848;SDS011;11089;49.852;19.700;2022-09-09T01:58:16;2.80;;;2.45;;
21848;SDS011;11089;49.852;19.700;2022-09-09T02:07:49;4.30;;;2.22;;
21848;SDS011;11089;49.852;19.700;2022-09-09T02:14:12;4.72;;;2.13;;
21848;SDS011;11089;49.852;19.700;2022-09-09T02:17:28;3.67;;;3.20;;
21848;SDS011;11089;49.852;19.700;2022-09-09T02:20:31;2.63;;;2.42;;
21848;SDS011;11089;49.852;19.700;2022-09-09T02:23:33;2.72;;;2.50;;
21848;SDS011;11089;49.852;19.700;2022-09-09T02:26:37;5.75;;;2.67;;
21848;SDS011;11089;49.852;19.700;2022-09-09T02:29:42;3.03;;;2.55;;
21848;SDS011;11089;49.852;19.700;2022-09-09T02:32:44;2.65;;;2.45;;
21848;SDS011;11089;49.852;19.700;2022-09-09T02:35:48;5.20;;;2.30;;
21848;SDS011;11089;49.852;19.700;2022-09-09T02:38:52;6.07;;;2.80;;
21848;SDS011;11089;49.852;19.700;2022-09-09T02:41:54;3.85;;;2.58;;
21848;SDS011;11089;49.852;19.700;2022-09-09T02:44:56;5.93;;;2.97;;
21848;SDS011;11089;49.852;19.700;2022-09-09T02:51:16;6.18;;;3.10;;
21848;SDS011;11089;49.852;19.700;2022-09-09T02:54:28;2.53;;;2.33;;
21848;SDS011;11089;49.852;19.700;2022-09-09T02:57:31;3.15;;;2.67;;
21848;SDS011;11089;49.852;19.700;2022-09-09T03:00:34;4.80;;;2.53;;
21848;SDS011;11089;49.852;19.700;2022-09-09T03:03:39;3.08;;;2.45;;
21848;SDS011;11089;49.852;19.700;2022-09-09T03:06:41;6.35;;;2.35;;
21848;SDS011;11089;49.852;19.700;2022-09-09T03:09:43;3.22;;;2.67;;
21848;SDS011;11089;49.852;19.700;2022-09-09T03:12:44;3.25;;;2.83;;
21848;SDS011;11089;49.852;19.700;2022-09-09T03:15:45;3.58;;;2.70;;
21848;SDS011;11089;49.852;19.700;2022-09-09T03:18:48;5.55;;;2.65;;
21848;SDS011;11089;49.852;19.700;2022-09-09T03:21:49;2.85;;;2.58;;
21848;SDS011;11089;49.852;19.700;2022-09-09T03:24:50;4.32;;;2.72;;
21848;SDS011;11089;49.852;19.700;2022-09-09T03:27:52;6.65;;;3.20;;
21848;SDS011;11089;49.852;19.700;2022-09-09T03:30:57;3.40;;;2.83;;
21848;SDS011;11089;49.852;19.700;2022-09-09T03:34:02;4.78;;;3.47;;
21848;SDS011;11089;49.852;19.700;2022-09-09T03:37:03;6.30;;;2.58;;
21848;SDS011;11089;49.852;19.700;2022-09-09T03:40:06;3.85;;;2.53;;
21848;SDS011;11089;49.852;19.700;2022-09-09T03:43:08;3.67;;;2.72;;
21848;SDS011;11089;49.852;19.700;2022-09-09T03:46:10;3.97;;;3.10;;
21848;SDS011;11089;49.852;19.700;2022-09-09T03:49:10;4.53;;;2.63;;
21848;SDS011;11089;49.852;19.700;2022-09-09T03:52:11;4.40;;;2.65;;
21848;SDS011;11089;49.852;19.700;2022-09-09T03:55:13;4.95;;;2.80;;
21848;SDS011;11089;49.852;19.700;2022-09-09T03:58:14;5.20;;;3.05;;
21848;SDS011;11089;49.852;19.700;2022-09-09T04:01:18;5.18;;;3.22;;
21848;SDS011;11089;49.852;19.700;2022-09-09T04:04:19;5.18;;;2.90;;
21848;SDS011;11089;49.852;19.700;2022-09-09T04:07:20;6.38;;;3.17;;
21848;SDS011;11089;49.852;19.700;2022-09-09T04:10:21;8.48;;;3.22;;
21848;SDS011;11089;49.852;19.700;2022-09-09T04:13:23;7.25;;;3.00;;
21848;SDS011;11089;49.852;19.700;2022-09-09T04:16:25;5.20;;;2.80;;
21848;SDS011;11089;49.852;19.700;2022-09-09T04:19:26;5.25;;;3.00;;
21848;SDS011;11089;49.852;19.700;2022-09-09T04:22:27;5.35;;;2.90;;
21848;SDS011;11089;49.852;19.700;2022-09-09T04:25:28;5.40;;;3.15;;
21848;SDS011;11089;49.852;19.700;2022-09-09T04:28:30;7.03;;;3.20;;
21848;SDS011;11089;49.852;19.700;2022-09-09T04:31:32;5.43;;;3.53;;
21848;SDS011;11089;49.852;19.700;2022-09-09T04:34:33;8.23;;;3.85;;
21848;SDS011;11089;49.852;19.700;2022-09-09T04:37:34;4.20;;;3.33;;
21848;SDS011;11089;49.852;19.700;2022-09-09T04:40:35;4.88;;;3.45;;
21848;SDS011;11089;49.852;19.700;2022-09-09T04:43:36;4.22;;;3.83;;
21848;SDS011;11089;49.852;19.700;2022-09-09T04:46:39;5.45;;;4.03;;
21848;SDS011;11089;49.852;19.700;2022-09-09T04:49:41;5.07;;;3.95;;
21848;SDS011;11089;49.852;19.700;2022-09-09T04:52:42;4.40;;;3.75;;
21848;SDS011;11089;49.852;19.700;2022-09-09T04:55:43;5.05;;;3.83;;
21848;SDS011;11089;49.852;19.700;2022-09-09T04:58:44;7.78;;;4.30;;
21848;SDS011;11089;49.852;19.700;2022-09-09T05:01:45;4.57;;;4.07;;
21848;SDS011;11089;49.852;19.700;2022-09-09T05:04:46;7.72;;;4.20;;
21848;SDS011;11089;49.852;19.700;2022-09-09T05:07:49;5.55;;;3.88;;
21848;SDS011;11089;49.852;19.700;2022-09-09T05:10:50;6.25;;;4.30;;
21848;SDS011;11089;49.852;19.700;2022-09-09T05:13:51;5.97;;;4.30;;
21848;SDS011;11089;49.852;19.700;2022-09-09T05:16:53;6.45;;;4.32;;
21848;SDS011;11089;49.852;19.700;2022-09-09T05:19:54;6.65;;;3.90;;
21848;SDS011;11089;49.852;19.700;2022-09-09T05:22:55;5.05;;;3.72;;
21848;SDS011;11089;49.852;19.700;2022-09-09T05:25:57;6.35;;;3.90;;
21848;SDS011;11089;49.852;19.700;2022-09-09T05:28:58;5.38;;;3.22;;
21848;SDS011;11089;49.852;19.700;2022-09-09T05:32:00;4.43;;;3.78;;
21848;SDS011;11089;49.852;19.700;2022-09-09T05:35:02;4.82;;;3.35;;
21848;SDS011;11089;49.852;19.700;2022-09-09T05:38:03;4.22;;;3.38;;
21848;SDS011;11089;49.852;19.700;2022-09-09T05:41:04;5.53;;;3.30;;
21848;SDS011;11089;49.852;19.700;2022-09-09T05:44:06;5.22;;;3.38;;
21848;SDS011;11089;49.852;19.700;2022-09-09T05:47:07;4.90;;;3.60;;
21848;SDS011;11089;49.852;19.700;2022-09-09T05:50:08;6.50;;;4.03;;
21848;SDS011;11089;49.852;19.700;2022-09-09T05:53:09;8.45;;;5.35;;
21848;SDS011;11089;49.852;19.700;2022-09-09T05:56:12;9.85;;;4.80;;
21848;SDS011;11089;49.852;19.700;2022-09-09T05:59:15;6.80;;;5.15;;
21848;SDS011;11089;49.852;19.700;2022-09-09T06:02:16;5.90;;;4.65;;
21848;SDS011;11089;49.852;19.700;2022-09-09T06:05:17;5.63;;;4.55;;
21848;SDS011;11089;49.852;19.700;2022-09-09T06:08:18;6.00;;;4.30;;
21848;SDS011;11089;49.852;19.700;2022-09-09T06:11:23;6.35;;;4.15;;
21848;SDS011;11089;49.852;19.700;2022-09-09T06:14:26;7.32;;;4.25;;
21848;SDS011;11089;49.852;19.700;2022-09-09T06:17:27;4.85;;;3.83;;
21848;SDS011;11089;49.852;19.700;2022-09-09T06:20:28;6.15;;;4.15;;
21848;SDS011;11089;49.852;19.700;2022-09-09T06:23:30;8.18;;;4.53;;
21848;SDS011;11089;49.852;19.700;2022-09-09T06:26:32;6.00;;;3.97;;
21848;SDS011;11089;49.852;19.700;2022-09-09T06:29:40;10.95;;;4.28;;
21848;SDS011;11089;49.852;19.700;2022-09-09T06:32:41;4.85;;;4.30;;
21848;SDS011;11089;49.852;19.700;2022-09-09T06:35:42;5.97;;;3.80;;
21848;SDS011;11089;49.852;19.700;2022-09-09T06:38:53;9.55;;;3.60;;
21848;SDS011;11089;49.852;19.700;2022-09-09T06:41:54;6.50;;;3.78;;
21848;SDS011;11089;49.852;19.700;2022-09-09T06:44:57;8.32;;;4.28;;
21848;SDS011;11089;49.852;19.700;2022-09-09T06:47:58;4.72;;;4.10;;
21848;SDS011;11089;49.852;19.700;2022-09-09T06:51:03;7.07;;;4.00;;
21848;SDS011;11089;49.852;19.700;2022-09-09T06:54:05;4.75;;;3.72;;
21848;SDS011;11089;49.852;19.700;2022-09-09T06:57:06;6.45;;;4.03;;
21848;SDS011;11089;49.852;19.700;2022-09-09T07:00:07;6.32;;;4.13;;
21848;SDS011;11089;49.852;19.700;2022-09-09T07:03:09;6.18;;;4.07;;
21848;SDS011;11089;49.852;19.700;2022-09-09T07:06:21;4.60;;;3.72;;
21848;SDS011;11089;49.852;19.700;2022-09-09T07:09:26;4.25;;;3.33;;
21848;SDS011;11089;49.852;19.700;2022-09-09T07:12:27;9.85;;;4.10;;
21848;SDS011;11089;49.852;19.700;2022-09-09T07:15:28;5.40;;;3.97;;
21848;SDS011;11089;49.852;19.700;2022-09-09T07:18:29;4.22;;;3.28;;
21848;SDS011;11089;49.852;19.700;2022-09-09T07:21:31;3.90;;;3.50;;
21848;SDS011;11089;49.852;19.700;2022-09-09T07:24:33;7.65;;;3.25;;
21848;SDS011;11089;49.852;19.700;2022-09-09T07:27:34;5.38;;;3.00;;
21848;SDS011;11089;49.852;19.700;2022-09-09T07:30:34;3.33;;;2.70;;
21848;SDS011;11089;49.852;19.700;2022-09-09T07:33:35;4.22;;;2.63;;
21848;SDS011;11089;49.852;19.700;2022-09-09T07:36:37;6.03;;;2.47;;
21848;SDS011;11089;49.852;19.700;2022-09-09T07:39:39;2.88;;;2.35;;
21848;SDS011;11089;49.852;19.700;2022-09-09T07:42:40;4.13;;;2.50;;
21848;SDS011;11089;49.852;19.700;2022-09-09T07:45:41;4.38;;;2.35;;
21848;SDS011;11089;49.852;19.700;2022-09-09T07:48:46;4.22;;;2.47;;
21848;SDS011;11089;49.852;19.700;2022-09-09T07:51:52;4.00;;;2.35;;
21848;SDS011;11089;49.852;19.700;2022-09-09T07:54:53;3.45;;;2.33;;
21848;SDS011;11089;49.852;19.700;2022-09-09T07:57:53;4.13;;;2.15;;
21848;SDS011;11089;49.852;19.700;2022-09-09T08:00:56;3.58;;;2.10;;
21848;SDS011;11089;49.852;19.700;2022-09-09T08:07:01;2.28;;;2.08;;
21848;SDS011;11089;49.852;19.700;2022-09-09T08:10:04;2.72;;;2.35;;
21848;SDS011;11089;49.852;19.700;2022-09-09T08:13:06;2.58;;;2.17;;
21848;SDS011;11089;49.852;19.700;2022-09-09T08:16:09;2.88;;;1.73;;
21848;SDS011;11089;49.852;19.700;2022-09-09T08:19:12;1.60;;;1.50;;
21848;SDS011;11089;49.852;19.700;2022-09-09T08:22:15;2.78;;;1.73;;
21848;SDS011;11089;49.852;19.700;2022-09-09T08:25:16;1.90;;;1.45;;
21848;SDS011;11089;49.852;19.700;2022-09-09T08:28:17;3.05;;;1.60;;
21848;SDS011;11089;49.852;19.700;2022-09-09T08:31:19;2.00;;;1.48;;
21848;SDS011;11089;49.852;19.700;2022-09-09T08:34:23;3.22;;;1.50;;
21848;SDS011;11089;49.852;19.700;2022-09-09T08:37:27;9.70;;;1.67;;
21848;SDS011;11089;49.852;19.700;2022-09-09T08:40:28;1.98;;;1.42;;
21848;SDS011;11089;49.852;19.700;2022-09-09T08:43:36;1.52;;;1.42;;
21848;SDS011;11089;49.852;19.700;2022-09-09T08:46:46;1.98;;;1.33;;
21848;SDS011;11089;49.852;19.700;2022-09-09T08:50:00;2.38;;;1.30;;
21848;SDS011;11089;49.852;19.700;2022-09-09T08:53:16;1.77;;;1.42;;
21848;SDS011;11089;49.852;19.700;2022-09-09T08:56:31;1.52;;;1.35;;
21848;SDS011;11089;49.852;19.700;2022-09-09T08:59:33;2.13;;;1.33;;
21848;SDS011;11089;49.852;19.700;2022-09-09T09:02:38;2.55;;;1.27;;
21848;SDS011;11089;49.852;19.700;2022-09-09T09:09:28;1.42;;;1.30;;
21848;SDS011;11089;49.852;19.700;2022-09-09T09:12:41;1.70;;;1.08;;
21848;SDS011;11089;49.852;19.700;2022-09-09T09:15:44;2.17;;;1.20;;
21848;SDS011;11089;49.852;19.700;2022-09-09T09:18:54;2.03;;;1.00;;
21848;SDS011;11089;49.852;19.700;2022-09-09T09:28:25;1.33;;;1.23;;
21848;SDS011;11089;49.852;19.700;2022-09-09T09:31:29;1.50;;;1.20;;
21848;SDS011;11089;49.852;19.700;2022-09-09T09:34:30;1.92;;;1.25;;
21848;SDS011;11089;49.852;19.700;2022-09-09T09:37:32;1.17;;;1.08;;
21848;SDS011;11089;49.852;19.700;2022-09-09T09:40:37;1.15;;;1.05;;
21848;SDS011;11089;49.852;19.700;2022-09-09T09:43:55;1.58;;;1.27;;
21848;SDS011;11089;49.852;19.700;2022-09-09T09:50:27;1.40;;;0.98;;
21848;SDS011;11089;49.852;19.700;2022-09-09T09:53:32;2.33;;;1.02;;
21848;SDS011;11089;49.852;19.700;2022-09-09T09:56:35;2.38;;;1.23;;
21848;SDS011;11089;49.852;19.700;2022-09-09T09:59:36;1.33;;;1.00;;
21848;SDS011;11089;49.852;19.700;2022-09-09T10:02:41;1.92;;;1.30;;
21848;SDS011;11089;49.852;19.700;2022-09-09T10:05:47;2.15;;;1.08;;
21848;SDS011;11089;49.852;19.700;2022-09-09T10:08:48;1.25;;;1.00;;
21848;SDS011;11089;49.852;19.700;2022-09-09T10:28:26;1.13;;;1.00;;
21848;SDS011;11089;49.852;19.700;2022-09-09T10:34:58;1.27;;;1.00;;
21848;SDS011;11089;49.852;19.700;2022-09-09T10:44:37;2.70;;;1.10;;
21848;SDS011;11089;49.852;19.700;2022-09-09T10:48:02;1.63;;;1.17;;
21848;SDS011;11089;49.852;19.700;2022-09-09T10:58:24;1.67;;;1.58;;
21848;SDS011;11089;49.852;19.700;2022-09-09T11:01:39;2.28;;;2.08;;
21848;SDS011;11089;49.852;19.700;2022-09-09T11:04:57;2.00;;;1.90;;
21848;SDS011;11089;49.852;19.700;2022-09-09T11:08:14;1.77;;;1.60;;
21848;SDS011;11089;49.852;19.700;2022-09-09T11:11:27;1.70;;;1.60;;
21848;SDS011;11089;49.852;19.700;2022-09-09T11:14:37;1.80;;;1.70;;
21848;SDS011;11089;49.852;19.700;2022-09-09T11:17:46;1.95;;;1.85;;
21848;SDS011;11089;49.852;19.700;2022-09-09T11:21:00;2.40;;;2.20;;
21848;SDS011;11089;49.852;19.700;2022-09-09T11:24:05;2.50;;;2.30;;
21848;SDS011;11089;49.852;19.700;2022-09-09T11:30:40;2.20;;;2.00;;
21848;SDS011;11089;49.852;19.700;2022-09-09T11:34:35;1.63;;;1.52;;
21848;SDS011;11089;49.852;19.700;2022-09-09T11:40:45;2.05;;;1.40;;
21848;SDS011;11089;49.852;19.700;2022-09-09T11:43:51;2.00;;;1.40;;
21848;SDS011;11089;49.852;19.700;2022-09-09T11:46:52;1.83;;;1.48;;
21848;SDS011;11089;49.852;19.700;2022-09-09T11:49:53;1.33;;;1.23;;
21848;SDS011;11089;49.852;19.700;2022-09-09T11:56:22;1.42;;;1.33;;
21848;SDS011;11089;49.852;19.700;2022-09-09T11:59:32;2.25;;;1.35;;
21848;SDS011;11089;49.852;19.700;2022-09-09T12:02:33;1.30;;;1.20;;
21848;SDS011;11089;49.852;19.700;2022-09-09T12:05:40;1.30;;;1.20;;
21848;SDS011;11089;49.852;19.700;2022-09-09T12:08:45;1.27;;;1.17;;
21848;SDS011;11089;49.852;19.700;2022-09-09T12:11:51;1.20;;;1.10;;
21848;SDS011;11089;49.852;19.700;2022-09-09T12:17:57;2.15;;;0.90;;
21848;SDS011;11089;49.852;19.700;2022-09-09T12:24:31;1.00;;;1.00;;
21848;SDS011;11089;49.852;19.700;2022-09-09T12:27:59;0.98;;;0.95;;
21848;SDS011;11089;49.852;19.700;2022-09-09T12:37:52;1.27;;;1.15;;
21848;SDS011;11089;49.852;19.700;2022-09-09T12:44:26;1.23;;;1.10;;
21848;SDS011;11089;49.852;19.700;2022-09-09T12:47:36;1.50;;;1.40;;
21848;SDS011;11089;49.852;19.700;2022-09-09T12:50:46;4.75;;;1.20;;
21848;SDS011;11089;49.852;19.700;2022-09-09T12:53:50;1.02;;;1.00;;
21848;SDS011;11089;49.852;19.700;2022-09-09T12:56:52;1.48;;;1.35;;
21848;SDS011;11089;49.852;19.700;2022-09-09T13:00:03;1.88;;;1.10;;
21848;SDS011;11089;49.852;19.700;2022-09-09T13:03:19;1.40;;;1.30;;
21848;SDS011;11089;49.852;19.700;2022-09-09T13:06:27;1.58;;;1.20;;
21848;SDS011;11089;49.852;19.700;2022-09-09T13:09:32;1.30;;;1.10;;
21848;SDS011;11089;49.852;19.700;2022-09-09T13:12:33;1.75;;;1.17;;
21848;SDS011;11089;49.852;19.700;2022-09-09T13:15:34;1.35;;;1.25;;
21848;SDS011;11089;49.852;19.700;2022-09-09T13:18:36;2.38;;;1.65;;
21848;SDS011;11089;49.852;19.700;2022-09-09T13:21:40;1.40;;;1.30;;
21848;SDS011;11089;49.852;19.700;2022-09-09T13:24:42;4.20;;;1.50;;
21848;SDS011;11089;49.852;19.700;2022-09-09T13:27:54;1.70;;;1.60;;
21848;SDS011;11089;49.852;19.700;2022-09-09T13:30:59;1.65;;;1.48;;
21848;SDS011;11089;49.852;19.700;2022-09-09T13:34:30;1.40;;;1.30;;
21848;SDS011;11089;49.852;19.700;2022-09-09T13:37:36;1.95;;;1.38;;
21848;SDS011;11089;49.852;19.700;2022-09-09T13:40:39;2.70;;;1.40;;
21848;SDS011;11089;49.852;19.700;2022-09-09T13:43:44;1.63;;;1.52;;
21848;SDS011;11089;49.852;19.700;2022-09-09T13:53:30;2.97;;;1.80;;
21848;SDS011;11089;49.852;19.700;2022-09-09T13:56:32;2.03;;;1.48;;
21848;SDS011;11089;49.852;19.700;2022-09-09T13:59:35;3.22;;;1.73;;
21848;SDS011;11089;49.852;19.700;2022-09-09T14:02:36;1.80;;;1.30;;
21848;SDS011;11089;49.852;19.700;2022-09-09T14:05:38;1.80;;;1.38;;
21848;SDS011;11089;49.852;19.700;2022-09-09T14:08:40;2.45;;;1.35;;
21848;SDS011;11089;49.852;19.700;2022-09-09T14:11:41;2.00;;;1.65;;
21848;SDS011;11089;49.852;19.700;2022-09-09T14:14:43;1.35;;;1.25;;
21848;SDS011;11089;49.852;19.700;2022-09-09T14:17:44;2.75;;;1.50;;
21848;SDS011;11089;49.852;19.700;2022-09-09T14:20:45;1.70;;;1.50;;
21848;SDS011;11089;49.852;19.700;2022-09-09T14:23:46;1.58;;;1.45;;
21848;SDS011;11089;49.852;19.700;2022-09-09T14:26:46;2.00;;;1.38;;
21848;SDS011;11089;49.852;19.700;2022-09-09T14:29:48;1.90;;;1.30;;
21848;SDS011;11089;49.852;19.700;2022-09-09T14:32:48;1.35;;;1.25;;
21848;SDS011;11089;49.852;19.700;2022-09-09T14:35:54;2.10;;;1.58;;
21848;SDS011;11089;49.852;19.700;2022-09-09T14:39:00;1.67;;;1.55;;
21848;SDS011;11089;49.852;19.700;2022-09-09T14:42:01;1.75;;;1.50;;
21848;SDS011;11089;49.852;19.700;2022-09-09T14:45:02;2.75;;;1.48;;
21848;SDS011;11089;49.852;19.700;2022-09-09T14:48:03;4.57;;;1.50;;
21848;SDS011;11089;49.852;19.700;2022-09-09T14:51:08;2.45;;;1.35;;
21848;SDS011;11089;49.852;19.700;2022-09-09T14:54:10;1.95;;;1.45;;
21848;SDS011;11089;49.852;19.700;2022-09-09T14:57:11;2.45;;;1.65;;
21848;SDS011;11089;49.852;19.700;2022-09-09T15:00:13;1.40;;;1.30;;
21848;SDS011;11089;49.852;19.700;2022-09-09T15:03:14;1.65;;;1.55;;
21848;SDS011;11089;49.852;19.700;2022-09-09T15:06:15;1.50;;;1.40;;
21848;SDS011;11089;49.852;19.700;2022-09-09T15:09:16;1.50;;;1.40;;
21848;SDS011;11089;49.852;19.700;2022-09-09T15:12:17;2.13;;;1.42;;
21848;SDS011;11089;49.852;19.700;2022-09-09T15:15:18;1.92;;;1.42;;
21848;SDS011;11089;49.852;19.700;2022-09-09T15:18:20;3.33;;;1.52;;
21848;SDS011;11089;49.852;19.700;2022-09-09T15:21:23;3.05;;;1.63;;
21848;SDS011;11089;49.852;19.700;2022-09-09T15:24:25;4.60;;;1.92;;
21848;SDS011;11089;49.852;19.700;2022-09-09T15:27:26;2.55;;;1.60;;
21848;SDS011;11089;49.852;19.700;2022-09-09T15:30:27;3.33;;;1.65;;
21848;SDS011;11089;49.852;19.700;2022-09-09T15:33:28;1.95;;;1.60;;
21848;SDS011;11089;49.852;19.700;2022-09-09T15:36:33;8.13;;;1.70;;
21848;SDS011;11089;49.852;19.700;2022-09-09T15:39:35;2.65;;;1.60;;
21848;SDS011;11089;49.852;19.700;2022-09-09T15:42:36;3.13;;;1.80;;
21848;SDS011;11089;49.852;19.700;2022-09-09T15:45:37;2.45;;;1.45;;
21848;SDS011;11089;49.852;19.700;2022-09-09T15:48:38;2.80;;;1.55;;
21848;SDS011;11089;49.852;19.700;2022-09-09T15:51:43;3.22;;;1.60;;
21848;SDS011;11089;49.852;19.700;2022-09-09T15:54:45;2.28;;;1.40;;
21848;SDS011;11089;49.852;19.700;2022-09-09T15:57:46;2.45;;;1.70;;
21848;SDS011;11089;49.852;19.700;2022-09-09T16:00:47;1.98;;;1.63;;
21848;SDS011;11089;49.852;19.700;2022-09-09T16:03:48;2.10;;;1.90;;
21848;SDS011;11089;49.852;19.700;2022-09-09T16:06:51;3.28;;;1.55;;
21848;SDS011;11089;49.852;19.700;2022-09-09T16:09:58;3.03;;;1.50;;
21848;SDS011;11089;49.852;19.700;2022-09-09T16:12:59;5.40;;;1.67;;
21848;SDS011;11089;49.852;19.700;2022-09-09T16:16:00;2.22;;;1.60;;
21848;SDS011;11089;49.852;19.700;2022-09-09T16:19:06;1.88;;;1.70;;
21848;SDS011;11089;49.852;19.700;2022-09-09T16:22:09;6.78;;;1.52;;
21848;SDS011;11089;49.852;19.700;2022-09-09T16:25:11;6.70;;;1.85;;
21848;SDS011;11089;49.852;19.700;2022-09-09T16:28:12;2.17;;;1.65;;
21848;SDS011;11089;49.852;19.700;2022-09-09T16:31:14;6.18;;;2.10;;
21848;SDS011;11089;49.852;19.700;2022-09-09T16:34:17;4.30;;;2.65;;
21848;SDS011;11089;49.852;19.700;2022-09-09T16:37:18;3.97;;;2.20;;
21848;SDS011;11089;49.852;19.700;2022-09-09T16:40:19;2.80;;;2.10;;
21848;SDS011;11089;49.852;19.700;2022-09-09T16:43:20;2.53;;;2.17;;
21848;SDS011;11089;49.852;19.700;2022-09-09T16:46:21;4.35;;;2.90;;
21848;SDS011;11089;49.852;19.700;2022-09-09T16:49:24;6.80;;;3.65;;
21848;SDS011;11089;49.852;19.700;2022-09-09T16:52:25;8.68;;;3.88;;
21848;SDS011;11089;49.852;19.700;2022-09-09T16:55:25;9.20;;;4.30;;
21848;SDS011;11089;49.852;19.700;2022-09-09T16:58:26;6.55;;;3.55;;
21848;SDS011;11089;49.852;19.700;2022-09-09T17:01:29;5.13;;;3.08;;
21848;SDS011;11089;49.852;19.700;2022-09-09T17:04:32;5.32;;;3.38;;
21848;SDS011;11089;49.852;19.700;2022-09-09T17:07:34;7.05;;;3.85;;
21848;SDS011;11089;49.852;19.700;2022-09-09T17:10:40;5.53;;;2.95;;
21848;SDS011;11089;49.852;19.700;2022-09-09T17:13:42;5.07;;;3.00;;
21848;SDS011;11089;49.852;19.700;2022-09-09T17:16:45;3.67;;;2.38;;
21848;SDS011;11089;49.852;19.700;2022-09-09T17:19:46;5.85;;;2.67;;
21848;SDS011;11089;49.852;19.700;2022-09-09T17:22:48;5.88;;;2.60;;
21848;SDS011;11089;49.852;19.700;2022-09-09T17:25:55;4.03;;;2.50;;
21848;SDS011;11089;49.852;19.700;2022-09-09T17:28:58;4.28;;;2.70;;
21848;SDS011;11089;49.852;19.700;2022-09-09T17:32:00;3.40;;;2.78;;
21848;SDS011;11089;49.852;19.700;2022-09-09T17:35:02;5.93;;;2.63;;
21848;SDS011;11089;49.852;19.700;2022-09-09T17:38:05;4.43;;;2.67;;
21848;SDS011;11089;49.852;19.700;2022-09-09T17:41:08;3.70;;;2.88;;
21848;SDS011;11089;49.852;19.700;2022-09-09T17:44:14;5.35;;;2.60;;
21848;SDS011;11089;49.852;19.700;2022-09-09T17:47:16;4.20;;;2.45;;
21848;SDS011;11089;49.852;19.700;2022-09-09T17:50:16;5.28;;;2.60;;
21848;SDS011;11089;49.852;19.700;2022-09-09T17:53:18;3.72;;;2.63;;
21848;SDS011;11089;49.852;19.700;2022-09-09T17:56:20;4.72;;;2.58;;
21848;SDS011;11089;49.852;19.700;2022-09-09T17:59:22;8.18;;;2.97;;
21848;SDS011;11089;49.852;19.700;2022-09-09T18:02:25;3.42;;;2.80;;
21848;SDS011;11089;49.852;19.700;2022-09-09T18:05:26;2.85;;;2.53;;
21848;SDS011;11089;49.852;19.700;2022-09-09T18:08:27;5.35;;;2.72;;
21848;SDS011;11089;49.852;19.700;2022-09-09T18:11:30;5.60;;;2.33;;
21848;SDS011;11089;49.852;19.700;2022-09-09T18:14:33;3.05;;;2.58;;
21848;SDS011;11089;49.852;19.700;2022-09-09T18:17:34;3.70;;;2.80;;
21848;SDS011;11089;49.852;19.700;2022-09-09T18:20:35;3.17;;;2.65;;
21848;SDS011;11089;49.852;19.700;2022-09-09T18:23:37;2.80;;;2.50;;
21848;SDS011;11089;49.852;19.700;2022-09-09T18:26:40;3.28;;;2.15;;
21848;SDS011;11089;49.852;19.700;2022-09-09T18:29:42;3.75;;;2.25;;
21848;SDS011;11089;49.852;19.700;2022-09-09T18:32:43;5.32;;;2.60;;
21848;SDS011;11089;49.852;19.700;2022-09-09T18:35:44;4.07;;;2.58;;
21848;SDS011;11089;49.852;19.700;2022-09-09T18:38:47;3.20;;;2.90;;
21848;SDS011;11089;49.852;19.700;2022-09-09T18:41:50;5.20;;;2.75;;
21848;SDS011;11089;49.852;19.700;2022-09-09T18:44:52;4.15;;;3.05;;
21848;SDS011;11089;49.852;19.700;2022-09-09T18:47:53;4.30;;;3.00;;
21848;SDS011;11089;49.852;19.700;2022-09-09T18:50:57;7.28;;;2.70;;
21848;SDS011;11089;49.852;19.700;2022-09-09T18:54:03;3.97;;;2.42;;
21848;SDS011;11089;49.852;19.700;2022-09-09T18:57:08;4.30;;;2.60;;
21848;SDS011;11089;49.852;19.700;2022-09-09T19:00:09;4.85;;;2.70;;
21848;SDS011;11089;49.852;19.700;2022-09-09T19:03:11;4.20;;;2.78;;
21848;SDS011;11089;49.852;19.700;2022-09-09T19:06:13;7.43;;;2.67;;
21848;SDS011;11089;49.852;19.700;2022-09-09T19:09:16;3.13;;;2.83;;
21848;SDS011;11089;49.852;19.700;2022-09-09T19:12:18;5.80;;;3.10;;
21848;SDS011;11089;49.852;19.700;2022-09-09T19:15:19;3.78;;;2.55;;
21848;SDS011;11089;49.852;19.700;2022-09-09T19:18:20;3.65;;;3.05;;
21848;SDS011;11089;49.852;19.700;2022-09-09T19:21:22;3.92;;;3.00;;
21848;SDS011;11089;49.852;19.700;2022-09-09T19:24:26;5.55;;;3.50;;
21848;SDS011;11089;49.852;19.700;2022-09-09T19:27:32;6.40;;;3.80;;
21848;SDS011;11089;49.852;19.700;2022-09-09T19:30:33;6.45;;;3.78;;
21848;SDS011;11089;49.852;19.700;2022-09-09T19:33:35;7.32;;;3.70;;
21848;SDS011;11089;49.852;19.700;2022-09-09T19:36:37;8.52;;;4.25;;
21848;SDS011;11089;49.852;19.700;2022-09-09T19:39:38;6.07;;;3.90;;
21848;SDS011;11089;49.852;19.700;2022-09-09T19:42:39;7.03;;;3.53;;
21848;SDS011;11089;49.852;19.700;2022-09-09T19:45:40;5.47;;;3.97;;
21848;SDS011;11089;49.852;19.700;2022-09-09T19:48:41;9.35;;;3.72;;
21848;SDS011;11089;49.852;19.700;2022-09-09T19:51:42;8.07;;;4.53;;
21848;SDS011;11089;49.852;19.700;2022-09-09T19:54:43;5.97;;;3.90;;
21848;SDS011;11089;49.852;19.700;2022-09-09T19:57:45;5.15;;;3.58;;
21848;SDS011;11089;49.852;19.700;2022-09-09T20:00:46;6.72;;;3.83;;
21848;SDS011;11089;49.852;19.700;2022-09-09T20:03:47;6.88;;;3.95;;
21848;SDS011;11089;49.852;19.700;2022-09-09T20:06:51;6.97;;;4.28;;
21848;SDS011;11089;49.852;19.700;2022-09-09T20:09:53;9.10;;;4.20;;
21848;SDS011;11089;49.852;19.700;2022-09-09T20:12:54;7.18;;;4.38;;
21848;SDS011;11089;49.852;19.700;2022-09-09T20:16:01;7.88;;;4.90;;
21848;SDS011;11089;49.852;19.700;2022-09-09T20:19:08;7.80;;;4.53;;